sensor_id;sensor_type;location;lat;lon;timestamp;pressure;altitude;pressure_sealevel;temperature;humidity
67803;BME280;54601;51.378;-1.342;2023-08-01T00:00:04;98847.76;;;22.75;38.85
67803;BME280;54601;51.378;-1.342;2023-08-01T00:02:28;98849.28;;;22.98;38.55
67803;BME280;54601;51.378;-1.342;2023-08-01T00:04:53;98848.12;;;22.31;39.04
67803;BME280;54601;51.378;-1.342;2023-08-01T00:07:19;98852.29;;;22.85;38.68
67803;BME280;54601;51.378;-1.342;2023-08-01T00:09:44;98855.27;;;22.48;38.78
67803;BME280;54601;51.378;-1.342;2023-08-01T00:12:09;98858.84;;;22.98;38.77
67803;BME280;54601;51.378;-1.342;2023-08-01T00:14:36;98859.91;;;22.97;38.52
67803;BME280;54601;51.378;-1.342;2023-08-01T00:17:00;98864.84;;;22.81;38.64
67803;BME280;54601;51.378;-1.342;2023-08-01T00:19:26;98865.60;;;22.60;38.88
67803;BME280;54601;51.378;-1.342;2023-08-01T00:21:51;98865.88;;;22.73;38.73
67803;BME280;54601;51.378;-1.342;2023-08-01T00:24:16;98864.64;;;23.02;38.35
67803;BME280;54601;51.378;-1.342;2023-08-01T00:26:42;98862.00;;;23.10;38.55
67803;BME280;54601;51.378;-1.342;2023-08-01T00:29:07;98864.23;;;22.69;38.73
67803;BME280;54601;51.378;-1.342;2023-08-01T00:31:32;98858.11;;;22.75;38.67
67803;BME280;54601;51.378;-1.342;2023-08-01T00:33:58;98863.58;;;22.58;38.86
67803;BME280;54601;51.378;-1.342;2023-08-01T00:36:23;98855.30;;;22.93;38.70
67803;BME280;54601;51.378;-1.342;2023-08-01T00:38:48;98857.29;;;22.53;38.91
67803;BME280;54601;51.378;-1.342;2023-08-01T00:41:14;98856.54;;;22.47;38.98
67803;BME280;54601;51.378;-1.342;2023-08-01T00:43:39;98864.13;;;22.56;38.83
67803;BME280;54601;51.378;-1.342;2023-08-01T00:46:06;98861.34;;;22.81;38.82
67803;BME280;54601;51.378;-1.342;2023-08-01T00:48:30;98858.53;;;22.46;38.94
67803;BME280;54601;51.378;-1.342;2023-08-01T00:50:55;98856.37;;;22.61;38.72
67803;BME280;54601;51.378;-1.342;2023-08-01T00:53:21;98859.01;;;22.67;38.63
67803;BME280;54601;51.378;-1.342;2023-08-01T00:55:46;98867.84;;;22.89;38.63
67803;BME280;54601;51.378;-1.342;2023-08-01T00:58:11;98867.85;;;22.90;38.25
67803;BME280;54601;51.378;-1.342;2023-08-01T01:00:37;98866.87;;;22.67;38.86
67803;BME280;54601;51.378;-1.342;2023-08-01T01:03:02;98865.74;;;22.56;38.72
67803;BME280;54601;51.378;-1.342;2023-08-01T01:05:33;98865.72;;;22.63;38.90
67803;BME280;54601;51.378;-1.342;2023-08-01T01:07:52;98861.81;;;22.30;39.02
67803;BME280;54601;51.378;-1.342;2023-08-01T01:10:18;98864.26;;;22.61;38.61
67803;BME280;54601;51.378;-1.342;2023-08-01T01:12:43;98867.59;;;23.08;38.27
67803;BME280;54601;51.378;-1.342;2023-08-01T01:15:09;98867.94;;;22.68;38.48
67803;BME280;54601;51.378;-1.342;2023-08-01T01:17:34;98875.69;;;22.62;38.52
67803;BME280;54601;51.378;-1.342;2023-08-01T01:19:59;98875.22;;;22.61;38.85
67803;BME280;54601;51.378;-1.342;2023-08-01T01:22:25;98876.69;;;22.44;38.77
67803;BME280;54601;51.378;-1.342;2023-08-01T01:24:52;98880.25;;;22.60;38.55
67803;BME280;54601;51.378;-1.342;2023-08-01T01:27:16;98880.32;;;22.75;38.61
67803;BME280;54601;51.378;-1.342;2023-08-01T01:29:43;98885.87;;;22.37;38.78
67803;BME280;54601;51.378;-1.342;2023-08-01T01:32:07;98883.42;;;22.28;38.56
67803;BME280;54601;51.378;-1.342;2023-08-01T01:34:32;98884.66;;;22.58;38.77
67803;BME280;54601;51.378;-1.342;2023-08-01T01:36:57;98885.73;;;22.76;38.54
67803;BME280;54601;51.378;-1.342;2023-08-01T01:39:23;98883.64;;;22.71;38.57
67803;BME280;54601;51.378;-1.342;2023-08-01T01:41:48;98885.47;;;22.88;38.34
67803;BME280;54601;51.378;-1.342;2023-08-01T01:44:13;98887.44;;;22.42;38.63
67803;BME280;54601;51.378;-1.342;2023-08-01T01:46:39;98885.24;;;22.72;38.57
67803;BME280;54601;51.378;-1.342;2023-08-01T01:49:04;98884.87;;;22.50;38.84
67803;BME280;54601;51.378;-1.342;2023-08-01T01:51:30;98886.30;;;22.29;38.78
67803;BME280;54601;51.378;-1.342;2023-08-01T01:53:55;98886.59;;;22.74;38.48
67803;BME280;54601;51.378;-1.342;2023-08-01T01:56:20;98886.96;;;22.67;38.57
67803;BME280;54601;51.378;-1.342;2023-08-01T01:58:45;98887.91;;;22.38;38.64
67803;BME280;54601;51.378;-1.342;2023-08-01T02:01:11;98888.60;;;22.67;38.55
67803;BME280;54601;51.378;-1.342;2023-08-01T02:03:36;98886.05;;;22.59;38.64
67803;BME280;54601;51.378;-1.342;2023-08-01T02:06:02;98888.18;;;22.87;38.25
67803;BME280;54601;51.378;-1.342;2023-08-01T02:08:27;98889.98;;;22.59;38.33
67803;BME280;54601;51.378;-1.342;2023-08-01T02:10:52;98887.53;;;22.73;38.40
67803;BME280;54601;51.378;-1.342;2023-08-01T02:13:18;98886.89;;;22.73;38.37
67803;BME280;54601;51.378;-1.342;2023-08-01T02:15:43;98889.05;;;23.06;37.94
67803;BME280;54601;51.378;-1.342;2023-08-01T02:18:08;98880.54;;;22.68;38.41
67803;BME280;54601;51.378;-1.342;2023-08-01T02:20:34;98880.13;;;22.32;38.90
67803;BME280;54601;51.378;-1.342;2023-08-01T02:22:59;98878.47;;;22.62;38.50
67803;BME280;54601;51.378;-1.342;2023-08-01T02:25:24;98874.55;;;22.77;38.26
67803;BME280;54601;51.378;-1.342;2023-08-01T02:27:50;98871.69;;;22.68;38.38
67803;BME280;54601;51.378;-1.342;2023-08-01T02:30:15;98874.42;;;22.73;38.32
67803;BME280;54601;51.378;-1.342;2023-08-01T02:32:40;98874.69;;;22.57;38.19
67803;BME280;54601;51.378;-1.342;2023-08-01T02:35:07;98873.72;;;22.71;38.32
67803;BME280;54601;51.378;-1.342;2023-08-01T02:37:31;98868.84;;;22.34;38.83
67803;BME280;54601;51.378;-1.342;2023-08-01T02:39:56;98868.66;;;22.63;38.42
67803;BME280;54601;51.378;-1.342;2023-08-01T02:42:22;98864.61;;;22.20;38.67
67803;BME280;54601;51.378;-1.342;2023-08-01T02:44:47;98865.09;;;22.01;38.56
67803;BME280;54601;51.378;-1.342;2023-08-01T02:47:12;98870.02;;;22.46;38.33
67803;BME280;54601;51.378;-1.342;2023-08-01T02:49:38;98874.74;;;22.72;38.23
67803;BME280;54601;51.378;-1.342;2023-08-01T02:52:04;98876.03;;;22.56;38.13
67803;BME280;54601;51.378;-1.342;2023-08-01T02:54:29;98866.64;;;22.50;38.50
67803;BME280;54601;51.378;-1.342;2023-08-01T02:56:54;98868.73;;;22.67;38.25
67803;BME280;54601;51.378;-1.342;2023-08-01T02:59:19;98869.59;;;22.70;38.15
67803;BME280;54601;51.378;-1.342;2023-08-01T03:01:45;98869.46;;;22.74;38.15
67803;BME280;54601;51.378;-1.342;2023-08-01T03:04:10;98872.89;;;22.51;38.42
67803;BME280;54601;51.378;-1.342;2023-08-01T03:06:36;98873.45;;;22.52;38.13
67803;BME280;54601;51.378;-1.342;2023-08-01T03:09:01;98874.76;;;22.96;37.82
67803;BME280;54601;51.378;-1.342;2023-08-01T03:11:27;98873.78;;;22.47;38.42
67803;BME280;54601;51.378;-1.342;2023-08-01T03:13:52;98871.28;;;22.46;38.47
67803;BME280;54601;51.378;-1.342;2023-08-01T03:16:17;98866.58;;;22.36;38.59
67803;BME280;54601;51.378;-1.342;2023-08-01T03:18:43;98866.91;;;22.46;38.45
67803;BME280;54601;51.378;-1.342;2023-08-01T03:21:08;98867.80;;;22.30;38.69
67803;BME280;54601;51.378;-1.342;2023-08-01T03:23:33;98873.48;;;22.78;38.01
67803;BME280;54601;51.378;-1.342;2023-08-01T03:25:59;98877.58;;;22.70;38.04
67803;BME280;54601;51.378;-1.342;2023-08-01T03:28:25;98874.38;;;22.66;38.11
67803;BME280;54601;51.378;-1.342;2023-08-01T03:30:49;98871.68;;;22.67;38.12
67803;BME280;54601;51.378;-1.342;2023-08-01T03:33:15;98872.03;;;22.81;37.90
67803;BME280;54601;51.378;-1.342;2023-08-01T03:35:40;98872.07;;;22.58;38.18
67803;BME280;54601;51.378;-1.342;2023-08-01T03:38:06;98866.93;;;22.57;38.17
67803;BME280;54601;51.378;-1.342;2023-08-01T03:40:31;98863.02;;;22.35;38.50
67803;BME280;54601;51.378;-1.342;2023-08-01T03:42:56;98867.31;;;22.57;38.18
67803;BME280;54601;51.378;-1.342;2023-08-01T03:45:22;98865.64;;;22.33;38.47
67803;BME280;54601;51.378;-1.342;2023-08-01T03:47:47;98866.98;;;22.24;38.62
67803;BME280;54601;51.378;-1.342;2023-08-01T03:50:13;98872.06;;;22.79;37.82
67803;BME280;54601;51.378;-1.342;2023-08-01T03:52:38;98875.20;;;22.66;38.02
67803;BME280;54601;51.378;-1.342;2023-08-01T03:55:04;98870.75;;;22.49;38.18
67803;BME280;54601;51.378;-1.342;2023-08-01T03:57:29;98870.44;;;22.06;38.51
67803;BME280;54601;51.378;-1.342;2023-08-01T03:59:54;98872.96;;;22.17;38.64
67803;BME280;54601;51.378;-1.342;2023-08-01T04:02:19;98869.03;;;22.07;38.78
67803;BME280;54601;51.378;-1.342;2023-08-01T04:04:45;98870.57;;;22.29;38.48
67803;BME280;54601;51.378;-1.342;2023-08-01T04:07:10;98871.04;;;22.03;38.77
67803;BME280;54601;51.378;-1.342;2023-08-01T04:09:36;98871.87;;;22.11;38.69
67803;BME280;54601;51.378;-1.342;2023-08-01T04:12:01;98870.24;;;22.53;38.11
67803;BME280;54601;51.378;-1.342;2023-08-01T04:14:26;98868.00;;;22.06;38.72
67803;BME280;54601;51.378;-1.342;2023-08-01T04:16:52;98864.02;;;22.15;38.62
67803;BME280;54601;51.378;-1.342;2023-08-01T04:19:17;98868.70;;;22.16;38.58
67803;BME280;54601;51.378;-1.342;2023-08-01T04:21:43;98868.12;;;21.86;38.96
67803;BME280;54601;51.378;-1.342;2023-08-01T04:24:08;98874.81;;;22.08;38.67
67803;BME280;54601;51.378;-1.342;2023-08-01T04:26:33;98874.37;;;22.32;38.31
67803;BME280;54601;51.378;-1.342;2023-08-01T04:28:59;98874.96;;;22.12;38.56
67803;BME280;54601;51.378;-1.342;2023-08-01T04:31:24;98877.05;;;21.88;38.91
67803;BME280;54601;51.378;-1.342;2023-08-01T04:33:50;98877.35;;;21.72;39.08
67803;BME280;54601;51.378;-1.342;2023-08-01T04:36:15;98880.41;;;22.31;38.25
67803;BME280;54601;51.378;-1.342;2023-08-01T04:38:40;98882.54;;;22.48;38.01
67803;BME280;54601;51.378;-1.342;2023-08-01T04:41:06;98887.81;;;21.99;38.69
67803;BME280;54601;51.378;-1.342;2023-08-01T04:43:31;98886.44;;;21.94;38.74
67803;BME280;54601;51.378;-1.342;2023-08-01T04:45:57;98888.32;;;21.93;38.73
67803;BME280;54601;51.378;-1.342;2023-08-01T04:48:22;98888.65;;;21.80;38.89
67803;BME280;54601;51.378;-1.342;2023-08-01T04:50:48;98888.66;;;21.88;38.79
67803;BME280;54601;51.378;-1.342;2023-08-01T04:53:13;98888.20;;;21.89;38.76
67803;BME280;54601;51.378;-1.342;2023-08-01T04:55:39;98886.78;;;22.04;38.54
67803;BME280;54601;51.378;-1.342;2023-08-01T04:58:04;98891.24;;;22.40;38.06
67803;BME280;54601;51.378;-1.342;2023-08-01T05:00:29;98895.10;;;22.42;38.32
67803;BME280;54601;51.378;-1.342;2023-08-01T05:02:55;98898.80;;;22.36;38.08
67803;BME280;54601;51.378;-1.342;2023-08-01T05:05:20;98897.31;;;22.72;37.54
67803;BME280;54601;51.378;-1.342;2023-08-01T05:07:45;98898.56;;;22.44;37.88
67803;BME280;54601;51.378;-1.342;2023-08-01T05:10:11;98899.67;;;22.12;38.31
67803;BME280;54601;51.378;-1.342;2023-08-01T05:12:36;98902.24;;;22.13;38.28
67803;BME280;54601;51.378;-1.342;2023-08-01T05:15:02;98906.18;;;22.38;37.97
67803;BME280;54601;51.378;-1.342;2023-08-01T05:17:27;98905.46;;;22.34;38.01
67803;BME280;54601;51.378;-1.342;2023-08-01T05:19:53;98902.99;;;22.35;37.99
67803;BME280;54601;51.378;-1.342;2023-08-01T05:22:18;98909.19;;;22.73;37.51
67803;BME280;54601;51.378;-1.342;2023-08-01T05:24:43;98912.61;;;22.93;37.30
67803;BME280;54601;51.378;-1.342;2023-08-01T05:27:09;98922.00;;;23.22;36.94
67803;BME280;54601;51.378;-1.342;2023-08-01T05:29:34;98918.36;;;23.03;37.51
67803;BME280;54601;51.378;-1.342;2023-08-01T05:31:59;98917.98;;;23.17;37.34
67803;BME280;54601;51.378;-1.342;2023-08-01T05:34:25;98915.62;;;22.92;37.33
67803;BME280;54601;51.378;-1.342;2023-08-01T05:36:50;98913.87;;;22.77;37.58
67803;BME280;54601;51.378;-1.342;2023-08-01T05:39:16;98921.01;;;23.24;36.98
67803;BME280;54601;51.378;-1.342;2023-08-01T05:41:41;98921.06;;;23.06;37.19
67803;BME280;54601;51.378;-1.342;2023-08-01T05:44:07;98919.90;;;23.05;37.20
67803;BME280;54601;51.378;-1.342;2023-08-01T05:46:32;98925.04;;;23.05;37.16
67803;BME280;54601;51.378;-1.342;2023-08-01T05:48:57;98928.31;;;23.02;37.16
67803;BME280;54601;51.378;-1.342;2023-08-01T05:51:23;98928.96;;;23.11;37.10
67803;BME280;54601;51.378;-1.342;2023-08-01T05:53:48;98924.42;;;23.11;37.10
67803;BME280;54601;51.378;-1.342;2023-08-01T05:56:14;98925.73;;;23.04;37.19
67803;BME280;54601;51.378;-1.342;2023-08-01T05:58:39;98927.78;;;23.24;36.91
67803;BME280;54601;51.378;-1.342;2023-08-01T06:01:05;98931.18;;;23.20;36.98
67803;BME280;54601;51.378;-1.342;2023-08-01T06:03:30;98937.11;;;23.05;36.87
67803;BME280;54601;51.378;-1.342;2023-08-01T06:05:55;98941.91;;;23.13;37.09
67803;BME280;54601;51.378;-1.342;2023-08-01T06:08:21;98941.31;;;23.30;36.87
67803;BME280;54601;51.378;-1.342;2023-08-01T06:10:46;98939.42;;;23.35;36.88
67803;BME280;54601;51.378;-1.342;2023-08-01T06:13:12;98937.82;;;23.29;36.95
67803;BME280;54601;51.378;-1.342;2023-08-01T06:15:37;98939.18;;;23.19;37.02
67803;BME280;54601;51.378;-1.342;2023-08-01T06:18:02;98935.85;;;23.20;37.04
67803;BME280;54601;51.378;-1.342;2023-08-01T06:20:28;98938.14;;;23.34;36.85
67803;BME280;54601;51.378;-1.342;2023-08-01T06:22:53;98943.83;;;23.27;36.93
67803;BME280;54601;51.378;-1.342;2023-08-01T06:25:19;98941.55;;;23.22;36.96
67803;BME280;54601;51.378;-1.342;2023-08-01T06:27:44;98944.12;;;23.28;36.90
67803;BME280;54601;51.378;-1.342;2023-08-01T06:30:10;98949.18;;;23.42;36.75
67803;BME280;54601;51.378;-1.342;2023-08-01T06:32:35;98950.76;;;23.72;36.45
67803;BME280;54601;51.378;-1.342;2023-08-01T06:35:00;98952.78;;;23.97;36.21
67803;BME280;54601;51.378;-1.342;2023-08-01T06:37:26;98950.01;;;23.67;36.69
67803;BME280;54601;51.378;-1.342;2023-08-01T06:39:51;98953.94;;;23.62;36.77
67803;BME280;54601;51.378;-1.342;2023-08-01T06:42:16;98961.44;;;23.86;36.58
67803;BME280;54601;51.378;-1.342;2023-08-01T06:44:42;98966.30;;;23.61;36.59
67803;BME280;54601;51.378;-1.342;2023-08-01T06:47:07;98961.73;;;23.80;36.66
67803;BME280;54601;51.378;-1.342;2023-08-01T06:49:33;98955.35;;;23.78;36.65
67803;BME280;54601;51.378;-1.342;2023-08-01T06:51:58;98961.89;;;23.82;36.62
67803;BME280;54601;51.378;-1.342;2023-08-01T06:54:23;98958.17;;;23.70;36.46
67803;BME280;54601;51.378;-1.342;2023-08-01T06:56:49;98951.85;;;23.78;36.37
67803;BME280;54601;51.378;-1.342;2023-08-01T06:59:14;98955.88;;;23.97;36.40
67803;BME280;54601;51.378;-1.342;2023-08-01T07:01:40;98960.88;;;24.12;36.25
67803;BME280;54601;51.378;-1.342;2023-08-01T07:04:05;98955.22;;;23.90;36.19
67803;BME280;54601;51.378;-1.342;2023-08-01T07:06:30;98957.23;;;23.93;36.17
67803;BME280;54601;51.378;-1.342;2023-08-01T07:08:56;98954.26;;;24.09;36.00
67803;BME280;54601;51.378;-1.342;2023-08-01T07:11:21;98954.01;;;24.04;36.04
67803;BME280;54601;51.378;-1.342;2023-08-01T07:13:47;98959.72;;;24.07;36.00
67803;BME280;54601;51.378;-1.342;2023-08-01T07:16:12;98961.73;;;24.20;35.87
67803;BME280;54601;51.378;-1.342;2023-08-01T07:18:38;98960.80;;;24.22;35.83
67803;BME280;54601;51.378;-1.342;2023-08-01T07:21:04;98964.98;;;24.48;35.80
67803;BME280;54601;51.378;-1.342;2023-08-01T07:23:29;98965.59;;;24.10;35.69
67803;BME280;54601;51.378;-1.342;2023-08-01T07:25:54;98970.53;;;24.40;35.63
67803;BME280;54601;51.378;-1.342;2023-08-01T07:28:20;98974.22;;;24.18;35.56
67803;BME280;54601;51.378;-1.342;2023-08-01T07:30:45;98974.13;;;24.28;35.43
67803;BME280;54601;51.378;-1.342;2023-08-01T07:33:10;98978.25;;;24.32;35.43
67803;BME280;54601;51.378;-1.342;2023-08-01T07:35:36;98975.04;;;24.32;35.41
67803;BME280;54601;51.378;-1.342;2023-08-01T07:38:01;98969.60;;;24.32;35.40
67803;BME280;54601;51.378;-1.342;2023-08-01T07:40:26;98972.80;;;24.40;35.30
67803;BME280;54601;51.378;-1.342;2023-08-01T07:42:52;98970.71;;;24.34;35.04
67803;BME280;54601;51.378;-1.342;2023-08-01T07:45:17;98972.83;;;24.46;35.22
67803;BME280;54601;51.378;-1.342;2023-08-01T07:47:43;98976.47;;;24.54;35.13
67803;BME280;54601;51.378;-1.342;2023-08-01T07:50:09;98977.91;;;24.56;35.07
67803;BME280;54601;51.378;-1.342;2023-08-01T07:52:33;98971.72;;;24.55;35.04
67803;BME280;54601;51.378;-1.342;2023-08-01T07:54:59;98973.70;;;24.60;35.01
67803;BME280;54601;51.378;-1.342;2023-08-01T07:57:24;98981.63;;;24.68;35.00
67803;BME280;54601;51.378;-1.342;2023-08-01T07:59:50;98985.61;;;24.77;34.79
67803;BME280;54601;51.378;-1.342;2023-08-01T08:02:15;98983.80;;;24.75;34.86
67803;BME280;54601;51.378;-1.342;2023-08-01T08:04:40;98982.83;;;24.76;34.84
67803;BME280;54601;51.378;-1.342;2023-08-01T08:07:06;98988.36;;;24.91;34.68
67803;BME280;54601;51.378;-1.342;2023-08-01T08:09:31;98989.20;;;24.82;34.78
67803;BME280;54601;51.378;-1.342;2023-08-01T08:11:56;98992.05;;;24.83;34.71
67803;BME280;54601;51.378;-1.342;2023-08-01T08:14:22;98991.80;;;24.83;34.73
67803;BME280;54601;51.378;-1.342;2023-08-01T08:16:47;98987.36;;;24.97;34.60
67803;BME280;54601;51.378;-1.342;2023-08-01T08:19:12;98988.77;;;24.92;34.68
67803;BME280;54601;51.378;-1.342;2023-08-01T08:21:38;98987.39;;;24.76;34.59
67803;BME280;54601;51.378;-1.342;2023-08-01T08:24:03;98983.92;;;25.04;34.53
67803;BME280;54601;51.378;-1.342;2023-08-01T08:26:28;98985.27;;;25.07;34.48
67803;BME280;54601;51.378;-1.342;2023-08-01T08:28:54;98985.46;;;24.91;34.42
67803;BME280;54601;51.378;-1.342;2023-08-01T08:31:19;98979.96;;;24.76;34.39
67803;BME280;54601;51.378;-1.342;2023-08-01T08:33:44;98981.16;;;24.75;34.33
67803;BME280;54601;51.378;-1.342;2023-08-01T08:36:10;98984.70;;;24.95;34.38
67803;BME280;54601;51.378;-1.342;2023-08-01T08:38:35;98985.25;;;25.16;34.36
67803;BME280;54601;51.378;-1.342;2023-08-01T08:41:08;98990.95;;;24.73;34.38
67803;BME280;54601;51.378;-1.342;2023-08-01T08:43:26;98986.72;;;25.24;34.30
67803;BME280;54601;51.378;-1.342;2023-08-01T08:45:53;98987.07;;;25.00;34.20
67803;BME280;54601;51.378;-1.342;2023-08-01T08:48:18;98987.45;;;24.84;34.26
67803;BME280;54601;51.378;-1.342;2023-08-01T08:50:43;98989.45;;;25.28;34.18
67803;BME280;54601;51.378;-1.342;2023-08-01T08:53:08;98987.38;;;25.20;34.05
67803;BME280;54601;51.378;-1.342;2023-08-01T08:55:33;98991.48;;;24.98;34.18
67803;BME280;54601;51.378;-1.342;2023-08-01T08:57:59;98988.97;;;24.94;34.24
67803;BME280;54601;51.378;-1.342;2023-08-01T09:00:24;98988.24;;;24.91;34.21
67803;BME280;54601;51.378;-1.342;2023-08-01T09:02:49;98988.73;;;24.79;34.37
67803;BME280;54601;51.378;-1.342;2023-08-01T09:05:14;98987.94;;;24.76;34.39
67803;BME280;54601;51.378;-1.342;2023-08-01T09:07:45;98993.40;;;24.88;34.49
67803;BME280;54601;51.378;-1.342;2023-08-01T09:10:06;98987.37;;;24.87;34.50
67803;BME280;54601;51.378;-1.342;2023-08-01T09:12:34;98989.74;;;24.68;34.43
67803;BME280;54601;51.378;-1.342;2023-08-01T09:14:57;98983.87;;;24.81;34.52
67803;BME280;54601;51.378;-1.342;2023-08-01T09:17:21;98982.67;;;24.63;34.52
67803;BME280;54601;51.378;-1.342;2023-08-01T09:19:46;98985.69;;;24.73;34.34
67803;BME280;54601;51.378;-1.342;2023-08-01T09:22:12;98982.42;;;24.95;34.44
67803;BME280;54601;51.378;-1.342;2023-08-01T09:24:37;98982.89;;;24.73;34.36
67803;BME280;54601;51.378;-1.342;2023-08-01T09:27:03;98983.80;;;24.46;34.22
67803;BME280;54601;51.378;-1.342;2023-08-01T09:29:28;98991.83;;;24.79;34.44
67803;BME280;54601;51.378;-1.342;2023-08-01T09:31:53;98995.05;;;24.73;34.55
67803;BME280;54601;51.378;-1.342;2023-08-01T09:34:19;98998.30;;;24.90;34.34
67803;BME280;54601;51.378;-1.342;2023-08-01T09:36:44;99001.24;;;24.92;34.35
67803;BME280;54601;51.378;-1.342;2023-08-01T09:39:15;99010.09;;;24.88;34.38
67803;BME280;54601;51.378;-1.342;2023-08-01T09:41:34;99012.64;;;24.32;34.43
67803;BME280;54601;51.378;-1.342;2023-08-01T09:44:00;99011.91;;;24.80;34.44
67803;BME280;54601;51.378;-1.342;2023-08-01T09:46:25;99009.53;;;24.72;34.51
67803;BME280;54601;51.378;-1.342;2023-08-01T09:48:51;99009.29;;;24.68;34.52
67803;BME280;54601;51.378;-1.342;2023-08-01T09:51:17;99006.65;;;24.59;34.62
67803;BME280;54601;51.378;-1.342;2023-08-01T09:53:46;99000.54;;;24.34;34.63
67803;BME280;54601;51.378;-1.342;2023-08-01T09:56:07;98994.91;;;24.60;34.60
67803;BME280;54601;51.378;-1.342;2023-08-01T09:58:33;98992.99;;;24.41;34.63
67803;BME280;54601;51.378;-1.342;2023-08-01T10:00:58;98987.73;;;24.59;34.46
67803;BME280;54601;51.378;-1.342;2023-08-01T10:03:22;98989.40;;;24.95;34.20
67803;BME280;54601;51.378;-1.342;2023-08-01T10:05:48;98993.02;;;25.06;34.00
67803;BME280;54601;51.378;-1.342;2023-08-01T10:08:14;98992.35;;;25.17;33.94
67803;BME280;54601;51.378;-1.342;2023-08-01T10:10:39;98993.98;;;24.66;34.03
67803;BME280;54601;51.378;-1.342;2023-08-01T10:13:04;98991.99;;;25.14;34.00
67803;BME280;54601;51.378;-1.342;2023-08-01T10:15:29;98991.82;;;24.90;34.00
67803;BME280;54601;51.378;-1.342;2023-08-01T10:17:55;98990.91;;;25.13;34.04
67803;BME280;54601;51.378;-1.342;2023-08-01T10:20:21;98991.62;;;25.10;34.00
67803;BME280;54601;51.378;-1.342;2023-08-01T10:22:46;98991.70;;;24.93;34.03
67803;BME280;54601;51.378;-1.342;2023-08-01T10:25:11;98991.93;;;25.08;34.07
67803;BME280;54601;51.378;-1.342;2023-08-01T10:27:36;98997.21;;;24.95;33.99
67803;BME280;54601;51.378;-1.342;2023-08-01T10:30:03;98988.72;;;24.78;33.96
67803;BME280;54601;51.378;-1.342;2023-08-01T10:32:31;98991.28;;;24.98;33.92
67803;BME280;54601;51.378;-1.342;2023-08-01T10:34:52;98984.83;;;24.99;33.93
67803;BME280;54601;51.378;-1.342;2023-08-01T10:37:17;98984.03;;;25.16;33.94
67803;BME280;54601;51.378;-1.342;2023-08-01T10:39:43;98987.47;;;25.14;33.96
67803;BME280;54601;51.378;-1.342;2023-08-01T10:42:08;98986.09;;;25.10;34.02
67803;BME280;54601;51.378;-1.342;2023-08-01T10:44:44;98981.09;;;24.82;34.05
67803;BME280;54601;51.378;-1.342;2023-08-01T10:47:00;98985.39;;;25.21;33.88
67803;BME280;54601;51.378;-1.342;2023-08-01T10:49:33;98985.69;;;24.93;33.94
67803;BME280;54601;51.378;-1.342;2023-08-01T10:51:50;98993.29;;;24.93;33.91
67803;BME280;54601;51.378;-1.342;2023-08-01T10:54:19;98987.57;;;24.81;33.82
67803;BME280;54601;51.378;-1.342;2023-08-01T10:56:44;98988.22;;;25.09;33.71
67803;BME280;54601;51.378;-1.342;2023-08-01T10:59:06;98982.89;;;24.85;33.74
67803;BME280;54601;51.378;-1.342;2023-08-01T11:01:31;98986.81;;;24.88;33.68
67803;BME280;54601;51.378;-1.342;2023-08-01T11:03:56;98985.59;;;25.05;33.70
67803;BME280;54601;51.378;-1.342;2023-08-01T11:06:22;98987.04;;;25.10;33.64
67803;BME280;54601;51.378;-1.342;2023-08-01T11:08:47;98992.42;;;24.90;33.63
67803;BME280;54601;51.378;-1.342;2023-08-01T11:11:14;98989.99;;;25.07;33.70
67803;BME280;54601;51.378;-1.342;2023-08-01T11:13:38;98993.45;;;24.81;33.71
67803;BME280;54601;51.378;-1.342;2023-08-01T11:16:04;98991.95;;;24.87;33.67
67803;BME280;54601;51.378;-1.342;2023-08-01T11:18:28;98993.08;;;25.30;33.67
67803;BME280;54601;51.378;-1.342;2023-08-01T11:20:54;98983.60;;;25.16;33.83
67803;BME280;54601;51.378;-1.342;2023-08-01T11:23:28;98982.22;;;24.85;33.90
67803;BME280;54601;51.378;-1.342;2023-08-01T11:25:44;98976.50;;;24.82;33.93
67803;BME280;54601;51.378;-1.342;2023-08-01T11:28:11;98978.33;;;24.93;34.07
67803;BME280;54601;51.378;-1.342;2023-08-01T11:30:35;98978.47;;;24.99;33.97
67803;BME280;54601;51.378;-1.342;2023-08-01T11:33:01;98980.20;;;24.93;34.02
67803;BME280;54601;51.378;-1.342;2023-08-01T11:35:26;98979.41;;;24.51;33.99
67803;BME280;54601;51.378;-1.342;2023-08-01T11:37:52;98984.40;;;24.44;34.05
67803;BME280;54601;51.378;-1.342;2023-08-01T11:40:17;98980.65;;;24.43;34.05
67803;BME280;54601;51.378;-1.342;2023-08-01T11:42:42;98981.74;;;24.83;34.04
67803;BME280;54601;51.378;-1.342;2023-08-01T11:45:08;98979.07;;;24.84;34.06
67803;BME280;54601;51.378;-1.342;2023-08-01T11:47:33;98978.75;;;24.86;34.02
67803;BME280;54601;51.378;-1.342;2023-08-01T11:49:58;98975.72;;;24.59;34.04
67803;BME280;54601;51.378;-1.342;2023-08-01T11:52:24;98977.95;;;24.82;34.05
67803;BME280;54601;51.378;-1.342;2023-08-01T11:54:49;98977.83;;;24.57;34.07
67803;BME280;54601;51.378;-1.342;2023-08-01T11:57:14;98975.28;;;24.82;34.02
67803;BME280;54601;51.378;-1.342;2023-08-01T11:59:46;98978.81;;;24.62;33.98
67803;BME280;54601;51.378;-1.342;2023-08-01T12:02:05;98980.89;;;24.59;34.01
67803;BME280;54601;51.378;-1.342;2023-08-01T12:04:30;98976.47;;;24.85;33.95
67803;BME280;54601;51.378;-1.342;2023-08-01T12:06:55;98972.77;;;24.79;34.02
67803;BME280;54601;51.378;-1.342;2023-08-01T12:09:21;98974.35;;;24.54;34.05
67803;BME280;54601;51.378;-1.342;2023-08-01T12:11:46;98972.76;;;24.79;34.02
67803;BME280;54601;51.378;-1.342;2023-08-01T12:14:13;98975.25;;;24.34;34.04
67803;BME280;54601;51.378;-1.342;2023-08-01T12:16:38;98973.30;;;24.84;33.97
67803;BME280;54601;51.378;-1.342;2023-08-01T12:19:02;98976.37;;;24.81;33.99
67803;BME280;54601;51.378;-1.342;2023-08-01T12:21:28;98975.51;;;24.60;34.01
67803;BME280;54601;51.378;-1.342;2023-08-01T12:23:53;98972.12;;;24.62;33.98
67803;BME280;54601;51.378;-1.342;2023-08-01T12:26:18;98971.98;;;24.83;34.01
67803;BME280;54601;51.378;-1.342;2023-08-01T12:28:44;98970.80;;;24.80;34.02
67803;BME280;54601;51.378;-1.342;2023-08-01T12:31:09;98966.81;;;24.76;34.08
67803;BME280;54601;51.378;-1.342;2023-08-01T12:33:34;98965.83;;;24.81;34.03
67803;BME280;54601;51.378;-1.342;2023-08-01T12:36:00;98972.12;;;24.53;34.10
67803;BME280;54601;51.378;-1.342;2023-08-01T12:38:25;98973.40;;;24.35;34.02